Time;durP1;ratioP1;P1;durP2;ratioP2;P2;SDS_P1;SDS_P2;PMS_P1;PMS_P2;Temp;Humidity;BMP_temperature;BMP_pressure;BME280_temperature;BME280_humidity;BME280_pressure;Samples;Min_cycle;Max_cycle;Signal;HPM_P1;HPM_P2
2021/03/02 00:02:14;;;;;;;46.33;20.60;;;;;;;;;;4967768;28;20481;-74
2021/03/02 00:04:42;;;;;;;43.13;19.17;;;;;;;;;;4968161;28;20070;-74
2021/03/02 00:07:08;;;;;;;46.67;21.38;;;;;;;;;;4967871;28;20081;-74
2021/03/02 00:09:34;;;;;;;48.10;21.05;;;;;;;;;;4968653;28;20039;-74
2021/03/02 00:12:00;;;;;;;43.55;19.75;;;;;;;;;;4969411;28;20037;-75
2021/03/02 00:14:26;;;;;;;47.65;20.02;;;;;;;;;;4970872;28;20494;-74
2021/03/02 00:16:56;;;;;;;45.72;20.48;;;;;;;;;;4971880;28;20027;-74
2021/03/02 00:19:27;;;;;;;44.42;19.23;;;;;;;;;;4971775;28;20031;-74
2021/03/02 00:22:04;;;;;;;41.95;18.85;;;;;;;;;;4970243;28;20675;-73
2021/03/02 00:24:32;;;;;;;45.78;18.42;;;;;;;;;;4957585;28;20073;-74
2021/03/02 00:26:58;;;;;;;50.67;20.08;;;;;;;;;;4971477;28;20531;-74
2021/03/02 00:29:25;;;;;;;51.00;19.65;;;;;;;;;;4970605;28;20053;-75
2021/03/02 00:31:51;;;;;;;41.40;19.25;;;;;;;;;;4969644;28;20023;-73
2021/03/02 00:34:17;;;;;;;48.50;20.90;;;;;;;;;;4971620;28;20038;-74
2021/03/02 00:36:43;;;;;;;45.45;18.92;;;;;;;;;;4971048;28;20027;-73
2021/03/02 00:39:09;;;;;;;47.40;21.45;;;;;;;;;;4973009;28;20030;-73
2021/03/02 00:41:35;;;;;;;46.05;19.83;;;;;;;;;;4971223;28;20031;-73
2021/03/02 00:44:01;;;;;;;46.75;21.77;;;;;;;;;;4972947;28;20029;-73
2021/03/02 00:46:27;;;;;;;48.17;20.38;;;;;;;;;;4971400;28;20042;-73
2021/03/02 00:48:53;;;;;;;46.05;19.60;;;;;;;;;;4970408;28;20035;-74
2021/03/02 00:51:19;;;;;;;53.72;21.70;;;;;;;;;;4971129;28;20038;-74
2021/03/02 00:53:45;;;;;;;46.78;21.38;;;;;;;;;;4970628;28;20499;-73
2021/03/02 00:56:11;;;;;;;53.38;21.23;;;;;;;;;;4962633;28;20019;-74
2021/03/02 00:58:37;;;;;;;48.63;20.95;;;;;;;;;;4965787;28;20038;-74
2021/03/02 01:01:03;;;;;;;47.33;20.80;;;;;;;;;;4985799;28;20436;-74
2021/03/02 01:03:29;;;;;;;57.58;22.63;;;;;;;;;;4971052;28;20551;-75
2021/03/02 01:05:55;;;;;;;45.58;21.00;;;;;;;;;;4968476;28;20027;-74
2021/03/02 01:08:21;;;;;;;53.45;22.45;;;;;;;;;;4969568;28;20085;-75
2021/03/02 01:10:47;;;;;;;50.28;21.35;;;;;;;;;;4970841;28;20039;-76
2021/03/02 01:13:13;;;;;;;49.97;22.75;;;;;;;;;;4970639;28;20023;-74
2021/03/02 01:15:39;;;;;;;50.25;22.45;;;;;;;;;;4970120;28;20134;-75
2021/03/02 01:18:06;;;;;;;48.47;19.80;;;;;;;;;;4970526;28;20106;-74
2021/03/02 01:20:31;;;;;;;48.83;21.67;;;;;;;;;;4969124;28;20104;-73
2021/03/02 01:22:57;;;;;;;53.72;20.98;;;;;;;;;;4969692;28;20488;-74
2021/03/02 01:25:23;;;;;;;53.10;21.98;;;;;;;;;;4968713;28;20480;-75
2021/03/02 01:27:49;;;;;;;59.67;21.50;;;;;;;;;;4970329;28;20030;-75
2021/03/02 01:30:17;;;;;;;53.00;24.58;;;;;;;;;;4971088;28;20093;-74
2021/03/02 01:32:43;;;;;;;52.00;22.92;;;;;;;;;;4968599;28;20389;-73
2021/03/02 01:35:10;;;;;;;53.05;20.85;;;;;;;;;;4968143;28;20380;-73
2021/03/02 01:37:36;;;;;;;61.30;24.58;;;;;;;;;;4982342;28;20030;-73
2021/03/02 01:40:13;;;;;;;56.78;22.35;;;;;;;;;;4979444;28;20023;-74
2021/03/02 01:42:40;;;;;;;51.40;23.35;;;;;;;;;;4970351;28;20042;-73
2021/03/02 01:45:10;;;;;;;51.53;22.02;;;;;;;;;;4971461;28;20493;-73
2021/03/02 01:47:36;;;;;;;;;;;;;;;;;;4971483;28;20033;-73
2021/03/02 01:50:06;;;;;;;52.00;21.83;;;;;;;;;;4970523;28;19977;-73
2021/03/02 01:52:32;;;;;;;56.38;23.27;;;;;;;;;;4979087;28;20030;-73
2021/03/02 01:54:58;;;;;;;59.40;23.15;;;;;;;;;;4967508;28;20050;-73
2021/03/02 01:57:24;;;;;;;54.55;23.42;;;;;;;;;;4968879;28;20030;-73
2021/03/02 01:59:50;;;;;;;55.75;22.50;;;;;;;;;;4969841;28;20100;-73
2021/03/02 02:02:36;;;;;;;52.53;21.48;;;;;;;;;;4984441;28;20481;-73
2021/03/02 02:05:05;;;;;;;58.45;22.42;;;;;;;;;;4969704;28;20207;-73
2021/03/02 02:07:38;;;;;;;54.67;21.77;;;;;;;;;;4969251;28;20403;-73
2021/03/02 02:10:18;;;;;;;51.00;22.25;;;;;;;;;;4959017;28;20602;-74
2021/03/02 02:12:44;;;;;;;;;;;;;;;;;;4983071;28;20436;-74
2021/03/02 02:15:12;;;;;;;51.83;21.17;;;;;;;;;;4969876;28;19907;-74
2021/03/02 02:17:50;;;;;;;57.00;23.08;;;;;;;;;;4969357;28;20026;-73
2021/03/02 02:20:37;;;;;;;57.00;22.60;;;;;;;;;;4969505;28;20057;-73
2021/03/02 02:23:10;;;;;;;61.05;23.33;;;;;;;;;;4967907;28;20350;-74
2021/03/02 02:25:55;;;;;;;64.82;23.08;;;;;;;;;;4969419;28;20037;-74
2021/03/02 02:28:21;;;;;;;67.85;24.77;;;;;;;;;;4969333;28;20082;-74
2021/03/02 02:30:52;;;;;;;59.30;24.77;;;;;;;;;;4969310;28;20031;-74
2021/03/02 02:33:18;;;;;;;64.43;24.50;;;;;;;;;;4969475;28;20144;-74
2021/03/02 02:35:46;;;;;;;60.83;23.50;;;;;;;;;;4969022;28;20105;-74
2021/03/02 02:38:14;;;;;;;59.55;22.73;;;;;;;;;;4969168;28;20425;-74
2021/03/02 02:40:41;;;;;;;60.45;24.42;;;;;;;;;;4969646;28;20034;-74
2021/03/02 02:43:08;;;;;;;57.75;24.17;;;;;;;;;;4969259;28;20085;-73
2021/03/02 02:45:34;;;;;;;52.60;23.38;;;;;;;;;;4983593;28;20031;-73
2021/03/02 02:48:00;;;;;;;57.53;23.58;;;;;;;;;;4969226;28;20530;-73
2021/03/02 02:50:27;;;;;;;58.35;24.08;;;;;;;;;;4970293;28;20057;-73
2021/03/02 02:52:53;;;;;;;56.42;24.95;;;;;;;;;;4969144;28;20116;-73
2021/03/02 02:55:20;;;;;;;65.82;25.13;;;;;;;;;;4956669;28;20027;-73
2021/03/02 02:57:48;;;;;;;62.80;25.05;;;;;;;;;;4969340;28;20027;-73
2021/03/02 03:00:17;;;;;;;66.03;24.35;;;;;;;;;;4967282;28;20033;-73
2021/03/02 03:02:44;;;;;;;68.00;25.38;;;;;;;;;;4968742;28;20019;-73
2021/03/02 03:05:16;;;;;;;58.10;23.30;;;;;;;;;;4970485;28;20543;-73
2021/03/02 03:07:47;;;;;;;59.05;24.38;;;;;;;;;;4968731;28;20098;-73
2021/03/02 03:10:12;;;;;;;;;;;;;;;;;;4968781;28;20118;-73
2021/03/02 03:12:47;;;;;;;53.70;22.13;;;;;;;;;;4978658;28;20343;-72
2021/03/02 03:15:15;;;;;;;66.22;24.83;;;;;;;;;;4966645;28;20027;-73
2021/03/02 03:17:47;;;;;;;60.63;23.13;;;;;;;;;;4968770;28;20480;-73
2021/03/02 03:20:13;;;;;;;62.88;23.90;;;;;;;;;;4968605;28;20423;-73
2021/03/02 03:22:40;;;;;;;62.08;25.60;;;;;;;;;;4967559;28;20078;-73
2021/03/02 03:25:07;;;;;;;64.40;25.45;;;;;;;;;;4967492;28;20031;-73
2021/03/02 03:27:34;;;;;;;62.50;24.98;;;;;;;;;;4968605;28;20035;-74
2021/03/02 03:30:00;;;;;;;63.83;24.35;;;;;;;;;;4968934;28;20042;-74
2021/03/02 03:32:28;;;;;;;67.47;26.88;;;;;;;;;;4968782;28;20055;-74
2021/03/02 03:34:54;;;;;;;67.45;26.33;;;;;;;;;;4966458;28;20106;-74
2021/03/02 03:37:21;;;;;;;68.20;25.73;;;;;;;;;;4969219;28;20038;-74
2021/03/02 03:39:47;;;;;;;69.85;25.70;;;;;;;;;;4968543;28;20077;-74
2021/03/02 03:42:13;;;;;;;61.85;23.75;;;;;;;;;;4968259;28;20057;-74
2021/03/02 03:44:39;;;;;;;67.10;26.77;;;;;;;;;;4966877;28;20078;-74
2021/03/02 03:47:05;;;;;;;69.57;27.05;;;;;;;;;;4971882;28;20026;-74
2021/03/02 03:49:31;;;;;;;72.75;25.63;;;;;;;;;;4972440;28;20038;-74
2021/03/02 03:51:59;;;;;;;69.25;26.70;;;;;;;;;;4971037;28;20042;-74
2021/03/02 03:54:26;;;;;;;73.78;27.75;;;;;;;;;;4959297;28;20027;-74
2021/03/02 03:56:53;;;;;;;76.53;29.48;;;;;;;;;;4972737;28;20031;-74
2021/03/02 03:59:21;;;;;;;78.90;27.90;;;;;;;;;;4972033;28;20031;-74
2021/03/02 04:01:48;;;;;;;78.70;28.73;;;;;;;;;;4974093;28;20038;-74
2021/03/02 04:04:14;;;;;;;86.68;30.15;;;;;;;;;;4972147;28;20476;-74
2021/03/02 04:06:40;;;;;;;72.22;29.05;;;;;;;;;;4972235;28;20026;-74
2021/03/02 04:09:06;;;;;;;79.85;27.33;;;;;;;;;;4972118;28;20042;-74
2021/03/02 04:11:36;;;;;;;72.05;26.17;;;;;;;;;;4970938;28;20493;-74
2021/03/02 04:14:02;;;;;;;79.45;27.88;;;;;;;;;;4970676;28;20029;-73
2021/03/02 04:16:28;;;;;;;74.70;30.38;;;;;;;;;;4964884;28;20039;-75
2021/03/02 04:18:54;;;;;;;74.65;29.30;;;;;;;;;;4963728;28;20439;-73
2021/03/02 04:21:20;;;;;;;76.47;28.60;;;;;;;;;;4969936;28;20026;-74
2021/03/02 04:23:45;;;;;;;85.90;29.77;;;;;;;;;;4969696;28;20035;-74
2021/03/02 04:26:11;;;;;;;76.10;26.20;;;;;;;;;;4971515;28;20058;-74
2021/03/02 04:28:37;;;;;;;81.60;28.20;;;;;;;;;;4971426;28;20444;-74
2021/03/02 04:31:03;;;;;;;75.53;27.80;;;;;;;;;;4971114;28;20469;-74
2021/03/02 04:33:29;;;;;;;82.90;28.08;;;;;;;;;;4971459;28;20401;-73
2021/03/02 04:35:55;;;;;;;82.28;28.42;;;;;;;;;;4970931;28;20027;-73
2021/03/02 04:38:21;;;;;;;79.95;30.20;;;;;;;;;;4971592;28;20030;-74
2021/03/02 04:40:47;;;;;;;83.75;29.52;;;;;;;;;;4971716;28;20030;-75
2021/03/02 04:43:13;;;;;;;76.85;31.23;;;;;;;;;;4969823;28;20137;-71
2021/03/02 04:45:39;;;;;;;101.75;32.05;;;;;;;;;;4970269;28;20122;-72
2021/03/02 04:48:05;;;;;;;85.32;29.60;;;;;;;;;;4971351;28;20113;-71
2021/03/02 04:50:31;;;;;;;93.13;32.95;;;;;;;;;;4970864;28;20532;-72
2021/03/02 04:52:57;;;;;;;86.47;29.95;;;;;;;;;;4970971;28;20031;-71
2021/03/02 04:55:23;;;;;;;82.13;29.55;;;;;;;;;;4969457;28;20118;-71
2021/03/02 04:57:49;;;;;;;94.28;33.13;;;;;;;;;;4970145;28;20027;-71
2021/03/02 05:00:15;;;;;;;97.03;32.80;;;;;;;;;;4971193;28;20027;-71
2021/03/02 05:02:41;;;;;;;92.93;32.13;;;;;;;;;;4973954;28;20074;-72
2021/03/02 05:05:07;;;;;;;94.55;33.42;;;;;;;;;;4969593;28;20034;-72
2021/03/02 05:07:33;;;;;;;92.88;33.95;;;;;;;;;;4972271;28;20069;-72
2021/03/02 05:10:00;;;;;;;97.22;33.47;;;;;;;;;;4971086;28;20034;-71
2021/03/02 05:12:26;;;;;;;95.28;31.83;;;;;;;;;;4970579;28;20030;-72
2021/03/02 05:14:52;;;;;;;94.18;31.33;;;;;;;;;;4970777;28;20031;-73
2021/03/02 05:17:17;;;;;;;102.45;34.88;;;;;;;;;;4968651;28;20506;-73
2021/03/02 05:19:43;;;;;;;108.57;35.53;;;;;;;;;;4970245;28;20533;-73
2021/03/02 05:22:09;;;;;;;96.15;34.17;;;;;;;;;;4970782;28;20046;-73
2021/03/02 05:24:35;;;;;;;103.57;34.20;;;;;;;;;;4970257;28;20030;-73
2021/03/02 05:27:01;;;;;;;103.93;36.15;;;;;;;;;;4969426;28;20051;-73
2021/03/02 05:29:27;;;;;;;112.20;36.90;;;;;;;;;;4967634;28;20031;-73
2021/03/02 05:31:53;;;;;;;107.65;37.40;;;;;;;;;;4960306;28;20038;-73
2021/03/02 05:34:19;;;;;;;107.53;39.80;;;;;;;;;;4968035;28;20388;-73
2021/03/02 05:36:45;;;;;;;99.72;37.28;;;;;;;;;;4970488;28;20388;-73
2021/03/02 05:39:11;;;;;;;103.38;37.22;;;;;;;;;;4970894;28;20039;-73
2021/03/02 05:41:37;;;;;;;112.38;38.17;;;;;;;;;;4969715;28;20169;-73
2021/03/02 05:44:03;;;;;;;107.72;36.65;;;;;;;;;;4970484;28;20477;-74
2021/03/02 05:46:29;;;;;;;102.32;37.75;;;;;;;;;;4970142;28;20031;-73
2021/03/02 05:48:55;;;;;;;105.15;37.25;;;;;;;;;;4970121;28;20031;-73
2021/03/02 05:51:22;;;;;;;108.85;39.50;;;;;;;;;;4958889;28;20035;-73
2021/03/02 05:53:48;;;;;;;122.30;38.83;;;;;;;;;;4967243;28;20027;-73
2021/03/02 05:56:14;;;;;;;106.63;37.60;;;;;;;;;;4970256;28;20035;-73
2021/03/02 05:58:40;;;;;;;111.07;39.40;;;;;;;;;;4969639;28;20034;-73
2021/03/02 06:01:06;;;;;;;120.60;41.03;;;;;;;;;;4969001;28;20425;-73
2021/03/02 06:03:36;;;;;;;123.93;40.15;;;;;;;;;;4970185;28;20117;-73
2021/03/02 06:06:02;;;;;;;118.63;40.17;;;;;;;;;;4956983;28;20027;-73
2021/03/02 06:08:27;;;;;;;123.60;41.33;;;;;;;;;;4971348;28;20041;-73
2021/03/02 06:10:53;;;;;;;113.82;39.75;;;;;;;;;;4969155;28;20033;-73
2021/03/02 06:13:25;;;;;;;128.85;43.08;;;;;;;;;;4971572;28;20033;-73
2021/03/02 06:15:53;;;;;;;115.47;38.28;;;;;;;;;;4969369;28;20506;-73
2021/03/02 06:18:20;;;;;;;124.75;41.20;;;;;;;;;;4969591;28;20048;-73
2021/03/02 06:20:46;;;;;;;125.03;42.53;;;;;;;;;;4954658;28;20085;-73
2021/03/02 06:23:23;;;;;;;120.07;40.88;;;;;;;;;;4968191;28;20157;-73
2021/03/02 06:25:49;;;;;;;118.18;40.42;;;;;;;;;;4968103;28;20030;-73
2021/03/02 06:28:15;;;;;;;118.47;39.67;;;;;;;;;;4969527;28;20034;-73
2021/03/02 06:30:41;;;;;;;120.78;39.40;;;;;;;;;;4968030;28;20066;-73
2021/03/02 06:33:16;;;;;;;116.70;39.88;;;;;;;;;;4969467;28;20054;-73
2021/03/02 06:35:44;;;;;;;127.97;39.28;;;;;;;;;;4969703;28;20037;-74
2021/03/02 06:38:10;;;;;;;123.57;39.38;;;;;;;;;;4969146;28;20022;-73
2021/03/02 06:40:37;;;;;;;113.15;37.47;;;;;;;;;;4960603;28;20039;-74
2021/03/02 06:43:03;;;;;;;124.30;39.10;;;;;;;;;;4964860;28;20035;-73
2021/03/02 06:45:29;;;;;;;119.80;39.67;;;;;;;;;;4967685;28;20158;-74
2021/03/02 06:48:01;;;;;;;107.63;38.60;;;;;;;;;;4969266;28;20487;-73
2021/03/02 06:50:27;;;;;;;105.68;36.67;;;;;;;;;;4968874;28;20047;-73
2021/03/02 06:52:54;;;;;;;116.63;37.17;;;;;;;;;;4969090;28;20041;-73
2021/03/02 06:55:20;;;;;;;96.75;35.30;;;;;;;;;;4961933;28;20038;-72
2021/03/02 06:57:46;;;;;;;93.50;36.05;;;;;;;;;;4967715;28;20057;-73
2021/03/02 07:00:13;;;;;;;88.55;33.60;;;;;;;;;;4968697;28;20114;-72
2021/03/02 07:02:40;;;;;;;72.32;29.38;;;;;;;;;;4968754;28;20396;-72
2021/03/02 07:05:10;;;;;;;76.28;30.92;;;;;;;;;;4961587;28;20023;-73
2021/03/02 07:07:36;;;;;;;64.32;27.60;;;;;;;;;;4961199;28;20023;-73
2021/03/02 07:10:04;;;;;;;59.00;27.10;;;;;;;;;;4962375;28;20528;-74
2021/03/02 07:12:32;;;;;;;56.53;26.25;;;;;;;;;;4970430;28;20030;-73
2021/03/02 07:15:02;;;;;;;48.78;23.88;;;;;;;;;;4974665;28;20018;-73
2021/03/02 07:17:28;;;;;;;46.83;23.10;;;;;;;;;;4969696;28;20059;-73
2021/03/02 07:19:56;;;;;;;49.92;23.40;;;;;;;;;;4971720;28;20387;-73
2021/03/02 07:22:23;;;;;;;49.60;23.50;;;;;;;;;;4971788;28;20527;-73
2021/03/02 07:24:51;;;;;;;44.15;22.00;;;;;;;;;;4967962;28;20026;-73
2021/03/02 07:27:19;;;;;;;40.65;20.55;;;;;;;;;;4973588;28;20027;-73
2021/03/02 07:29:45;;;;;;;45.78;22.35;;;;;;;;;;4970538;28;20026;-73
2021/03/02 07:32:11;;;;;;;44.47;22.23;;;;;;;;;;4967800;28;20038;-74
2021/03/02 07:34:37;;;;;;;51.47;22.60;;;;;;;;;;4966363;28;20058;-74
2021/03/02 07:37:03;;;;;;;44.08;22.92;;;;;;;;;;4967917;28;20527;-74
2021/03/02 07:39:29;;;;;;;43.78;21.05;;;;;;;;;;4964939;28;20034;-73
2021/03/02 07:41:56;;;;;;;40.35;20.42;;;;;;;;;;4963898;28;20031;-74
2021/03/02 07:44:22;;;;;;;48.75;24.40;;;;;;;;;;4965275;28;20015;-73
2021/03/02 07:46:53;;;;;;;42.03;21.83;;;;;;;;;;4964392;28;20035;-73
2021/03/02 07:49:25;;;;;;;43.67;23.15;;;;;;;;;;4968858;28;20018;-74
2021/03/02 07:51:57;;;;;;;43.10;21.75;;;;;;;;;;4967646;28;20105;-73
2021/03/02 07:54:23;;;;;;;42.50;22.08;;;;;;;;;;4968014;28;20071;-74
2021/03/02 07:56:49;;;;;;;42.20;22.63;;;;;;;;;;4968919;28;20030;-74
2021/03/02 07:59:16;;;;;;;42.75;21.02;;;;;;;;;;4968548;28;20022;-74
2021/03/02 08:01:42;;;;;;;37.20;22.40;;;;;;;;;;4968415;28;20027;-74
2021/03/02 08:04:14;;;;;;;39.50;22.23;;;;;;;;;;4968187;28;20058;-75
2021/03/02 08:06:40;;;;;;;40.28;22.70;;;;;;;;;;4968193;28;20110;-74
2021/03/02 08:09:21;;;;;;;39.10;22.52;;;;;;;;;;4966963;28;20066;-74
2021/03/02 08:11:48;;;;;;;42.22;21.25;;;;;;;;;;4968813;28;20639;-74
2021/03/02 08:14:17;;;;;;;34.70;20.73;;;;;;;;;;4966618;28;20026;-74
2021/03/02 08:16:56;;;;;;;38.08;21.33;;;;;;;;;;4967963;28;20054;-74
2021/03/02 08:19:32;;;;;;;36.67;22.23;;;;;;;;;;4968382;28;20027;-74
2021/03/02 08:21:59;;;;;;;34.08;19.77;;;;;;;;;;4966908;28;20034;-74
2021/03/02 08:24:43;;;;;;;38.85;22.27;;;;;;;;;;4969094;28;20035;-74
2021/03/02 08:27:09;;;;;;;35.13;20.20;;;;;;;;;;4966932;28;20039;-74
2021/03/02 08:29:35;;;;;;;33.53;20.70;;;;;;;;;;4965565;28;20031;-74
2021/03/02 08:32:01;;;;;;;36.80;20.83;;;;;;;;;;4968866;28;20038;-75
2021/03/02 08:34:27;;;;;;;31.70;19.65;;;;;;;;;;4971003;28;20085;-74
2021/03/02 08:36:53;;;;;;;34.42;20.38;;;;;;;;;;4971778;28;20034;-74
2021/03/02 08:39:20;;;;;;;35.42;21.50;;;;;;;;;;4971434;28;20034;-74
2021/03/02 08:41:48;;;;;;;34.25;20.10;;;;;;;;;;4969785;28;20027;-75
2021/03/02 08:44:23;;;;;;;33.20;19.27;;;;;;;;;;4971078;28;20035;-73
2021/03/02 08:46:51;;;;;;;36.10;20.98;;;;;;;;;;4970689;28;20054;-74
2021/03/02 08:49:18;;;;;;;34.47;20.52;;;;;;;;;;4957617;28;20035;-74
2021/03/02 08:51:44;;;;;;;31.35;19.20;;;;;;;;;;4966034;28;20058;-74
2021/03/02 08:54:10;;;;;;;35.38;20.83;;;;;;;;;;4971051;28;20027;-74
2021/03/02 08:56:36;;;;;;;32.47;20.35;;;;;;;;;;4970617;28;20806;-74
2021/03/02 08:59:02;;;;;;;34.08;20.40;;;;;;;;;;4970782;28;20102;-74
2021/03/02 09:01:35;;;;;;;36.05;20.75;;;;;;;;;;4969684;28;20807;-74
2021/03/02 09:04:08;;;;;;;34.25;19.88;;;;;;;;;;4969100;28;20149;-74
2021/03/02 09:06:35;;;;;;;28.27;18.45;;;;;;;;;;4970836;28;20035;-73
2021/03/02 09:09:11;;;;;;;32.92;19.63;;;;;;;;;;4968901;28;20034;-74
2021/03/02 09:11:41;;;;;;;31.77;18.85;;;;;;;;;;4968875;28;20023;-74
2021/03/02 09:14:23;;;;;;;31.65;19.25;;;;;;;;;;4965739;28;20047;-73
2021/03/02 09:16:50;;;;;;;30.55;18.15;;;;;;;;;;4970160;28;20109;-73
2021/03/02 09:19:18;;;;;;;28.50;18.15;;;;;;;;;;4970102;28;20849;-71
2021/03/02 09:21:45;;;;;;;27.17;17.95;;;;;;;;;;4969541;28;20049;-74
2021/03/02 09:24:16;;;;;;;31.17;18.63;;;;;;;;;;4976602;28;20833;-73
2021/03/02 09:26:48;;;;;;;34.85;19.60;;;;;;;;;;4969731;28;20026;-74
2021/03/02 09:29:14;;;;;;;33.85;18.40;;;;;;;;;;4960810;28;20062;-74
2021/03/02 09:31:41;;;;;;;27.20;18.13;;;;;;;;;;4968976;28;20027;-74
2021/03/02 09:34:07;;;;;;;26.55;17.20;;;;;;;;;;4969120;28;20042;-74
2021/03/02 09:36:33;;;;;;;27.60;17.58;;;;;;;;;;4970082;28;20023;-74
2021/03/02 09:39:00;;;;;;;26.08;17.17;;;;;;;;;;4970152;28;20101;-74
2021/03/02 09:41:52;;;;;;;27.77;16.52;;;;;;;;;;4970131;28;20065;-73
2021/03/02 09:44:23;;;;;;;26.00;16.58;;;;;;;;;;4965852;28;20043;-74
2021/03/02 09:46:49;;;;;;;28.42;17.52;;;;;;;;;;4969635;28;20066;-75
2021/03/02 09:49:34;;;;;;;27.38;17.83;;;;;;;;;;4968333;28;20146;-74
2021/03/02 09:52:00;;;;;;;26.17;18.15;;;;;;;;;;4966529;28;20042;-74
2021/03/02 09:54:26;;;;;;;24.35;15.63;;;;;;;;;;4967122;28;20035;-74
2021/03/02 09:56:59;;;;;;;24.60;15.23;;;;;;;;;;4969172;28;20062;-74
2021/03/02 09:59:26;;;;;;;23.02;14.88;;;;;;;;;;4969606;28;20031;-74
2021/03/02 10:01:53;;;;;;;23.05;15.05;;;;;;;;;;4968341;28;20110;-74
2021/03/02 10:04:19;;;;;;;22.48;14.68;;;;;;;;;;4969246;28;20019;-74
2021/03/02 10:06:45;;;;;;;20.73;13.27;;;;;;;;;;4969435;28;20035;-74
2021/03/02 10:09:18;;;;;;;22.05;12.60;;;;;;;;;;4966857;28;20078;-74
2021/03/02 10:11:44;;;;;;;23.05;12.40;;;;;;;;;;4969398;28;20031;-73
2021/03/02 10:14:10;;;;;;;17.58;12.90;;;;;;;;;;4967770;28;20173;-75
2021/03/02 10:16:48;;;;;;;22.27;13.00;;;;;;;;;;4968414;28;20700;-75
2021/03/02 10:19:21;;;;;;;16.27;12.23;;;;;;;;;;4970085;28;20047;-75
2021/03/02 10:21:48;;;;;;;21.85;12.55;;;;;;;;;;4967068;28;20037;-75
2021/03/02 10:24:18;;;;;;;20.45;13.00;;;;;;;;;;4968481;28;20392;-75
2021/03/02 10:26:44;;;;;;;17.42;11.88;;;;;;;;;;4969115;28;20492;-73
2021/03/02 10:29:10;;;;;;;16.70;11.95;;;;;;;;;;4969801;28;20033;-74
2021/03/02 10:31:36;;;;;;;22.45;13.57;;;;;;;;;;4987198;28;20465;-75
2021/03/02 10:34:09;;;;;;;19.55;11.85;;;;;;;;;;4969153;28;20161;-76
2021/03/02 10:36:36;;;;;;;17.10;11.55;;;;;;;;;;4968417;28;20034;-74
2021/03/02 10:39:05;;;;;;;16.70;11.43;;;;;;;;;;4968892;28;20030;-74
2021/03/02 10:41:31;;;;;;;21.83;11.38;;;;;;;;;;4968928;28;20563;-76
2021/03/02 10:43:57;;;;;;;18.90;12.43;;;;;;;;;;4969309;28;20026;-74
2021/03/02 10:46:24;;;;;;;17.27;10.75;;;;;;;;;;4968962;28;20407;-75
2021/03/02 10:48:50;;;;;;;19.88;11.80;;;;;;;;;;4968270;28;20015;-74
2021/03/02 10:51:17;;;;;;;18.38;12.10;;;;;;;;;;4968684;28;20110;-74
2021/03/02 10:53:44;;;;;;;20.00;12.68;;;;;;;;;;4968776;28;20034;-75
2021/03/02 10:56:09;;;;;;;17.63;11.20;;;;;;;;;;4968369;28;20028;-74
2021/03/02 10:58:36;;;;;;;20.13;12.13;;;;;;;;;;4968294;28;20477;-74
2021/03/02 11:01:02;;;;;;;16.85;11.10;;;;;;;;;;4968948;28;20040;-74
2021/03/02 11:03:29;;;;;;;18.73;11.10;;;;;;;;;;4968791;28;20515;-74
2021/03/02 11:05:54;;;;;;;19.50;11.70;;;;;;;;;;4968828;28;20349;-72
2021/03/02 11:08:21;;;;;;;19.52;11.90;;;;;;;;;;4968565;28;20532;-72
2021/03/02 11:10:48;;;;;;;16.20;11.43;;;;;;;;;;4968377;28;20377;-73
2021/03/02 11:13:14;;;;;;;18.15;11.40;;;;;;;;;;4968051;28;20105;-73
2021/03/02 11:15:40;;;;;;;17.20;12.18;;;;;;;;;;4967699;28;20031;-74
2021/03/02 11:18:07;;;;;;;17.98;12.02;;;;;;;;;;4967699;28;20504;-72
2021/03/02 11:20:34;;;;;;;18.05;11.75;;;;;;;;;;4968080;28;20431;-73
2021/03/02 11:23:00;;;;;;;16.90;11.73;;;;;;;;;;4967218;28;20390;-74
2021/03/02 11:25:26;;;;;;;18.63;12.25;;;;;;;;;;4966419;28;20042;-74
2021/03/02 11:27:52;;;;;;;16.70;11.25;;;;;;;;;;4968351;28;20031;-74
2021/03/02 11:30:19;;;;;;;18.45;11.70;;;;;;;;;;4967865;28;20035;-73
2021/03/02 11:32:45;;;;;;;16.85;11.45;;;;;;;;;;4965927;28;20037;-73
2021/03/02 11:35:11;;;;;;;21.88;12.35;;;;;;;;;;4967330;28;20725;-73
2021/03/02 11:37:39;;;;;;;18.35;12.63;;;;;;;;;;4969236;28;20030;-73
2021/03/02 11:40:06;;;;;;;23.30;11.68;;;;;;;;;;4966470;28;20023;-74
2021/03/02 11:42:32;;;;;;;17.10;10.45;;;;;;;;;;4976115;28;20035;-74
2021/03/02 11:44:59;;;;;;;15.80;10.93;;;;;;;;;;4966476;28;20110;-74
2021/03/02 11:47:25;;;;;;;20.15;12.02;;;;;;;;;;4970459;28;20125;-74
2021/03/02 11:49:53;;;;;;;19.77;11.18;;;;;;;;;;4971244;28;20586;-74
2021/03/02 11:52:19;;;;;;;18.38;11.18;;;;;;;;;;4971354;28;20029;-74
2021/03/02 11:54:45;;;;;;;16.00;10.88;;;;;;;;;;4973025;28;20026;-74
2021/03/02 11:57:11;;;;;;;18.73;11.82;;;;;;;;;;4974884;28;20042;-73
2021/03/02 11:59:37;;;;;;;19.38;11.10;;;;;;;;;;4971896;28;20026;-74
2021/03/02 12:02:03;;;;;;;17.00;11.32;;;;;;;;;;4966838;28;20039;-73
2021/03/02 12:04:29;;;;;;;15.93;11.18;;;;;;;;;;4974662;28;20042;-73
2021/03/02 12:06:55;;;;;;;16.52;10.85;;;;;;;;;;4969984;28;20031;-72
2021/03/02 12:09:20;;;;;;;20.27;12.30;;;;;;;;;;4967355;28;20023;-73
2021/03/02 12:11:47;;;;;;;16.58;11.48;;;;;;;;;;4972360;28;20492;-72
2021/03/02 12:14:13;;;;;;;17.20;11.25;;;;;;;;;;4970908;28;20491;-73
2021/03/02 12:16:39;;;;;;;15.65;10.82;;;;;;;;;;4971513;28;20101;-72
2021/03/02 12:19:05;;;;;;;15.93;11.35;;;;;;;;;;4979257;28;20787;-73
2021/03/02 12:21:30;;;;;;;16.73;10.80;;;;;;;;;;4969431;28;20039;-73
2021/03/02 12:23:56;;;;;;;18.23;11.10;;;;;;;;;;4969318;28;20049;-73
2021/03/02 12:26:22;;;;;;;19.27;10.57;;;;;;;;;;4970961;28;20392;-74
2021/03/02 12:28:48;;;;;;;17.27;11.40;;;;;;;;;;4970095;28;20041;-75
2021/03/02 12:31:15;;;;;;;15.77;10.43;;;;;;;;;;4968960;28;20045;-73
2021/03/02 12:33:40;;;;;;;18.80;10.95;;;;;;;;;;4968655;28;20034;-73
2021/03/02 12:36:07;;;;;;;14.15;10.00;;;;;;;;;;4970941;28;20400;-73
2021/03/02 12:38:32;;;;;;;16.80;11.27;;;;;;;;;;4971580;28;20493;-73
2021/03/02 12:40:58;;;;;;;15.35;10.48;;;;;;;;;;4971348;28;20121;-73
2021/03/02 12:43:24;;;;;;;14.13;10.20;;;;;;;;;;4971909;28;20035;-74
2021/03/02 12:45:50;;;;;;;16.38;10.82;;;;;;;;;;4972052;28;20034;-74
2021/03/02 12:48:16;;;;;;;16.73;11.18;;;;;;;;;;4971383;28;20038;-73
2021/03/02 12:50:42;;;;;;;16.38;10.88;;;;;;;;;;4970627;28;20105;-74
2021/03/02 12:53:09;;;;;;;16.98;10.95;;;;;;;;;;4970532;28;20039;-73
2021/03/02 12:55:34;;;;;;;16.20;10.60;;;;;;;;;;4969922;28;20061;-73
2021/03/02 12:58:01;;;;;;;19.48;11.38;;;;;;;;;;4971233;28;20062;-73
2021/03/02 13:00:27;;;;;;;16.05;10.40;;;;;;;;;;4969835;28;20026;-73
2021/03/02 13:02:54;;;;;;;16.52;11.05;;;;;;;;;;4971258;28;20131;-73
2021/03/02 13:05:21;;;;;;;19.20;12.35;;;;;;;;;;4971133;28;20026;-73
2021/03/02 13:07:47;;;;;;;16.50;10.57;;;;;;;;;;4969952;28;20023;-73
2021/03/02 13:10:13;;;;;;;15.73;10.68;;;;;;;;;;4971283;28;20493;-73
2021/03/02 13:12:39;;;;;;;18.05;10.55;;;;;;;;;;4969958;28;20042;-74
2021/03/02 13:15:05;;;;;;;18.08;10.25;;;;;;;;;;4970570;28;20027;-73
2021/03/02 13:17:31;;;;;;;17.73;10.52;;;;;;;;;;4968667;28;20404;-73
2021/03/02 13:20:00;;;;;;;26.42;10.73;;;;;;;;;;4968941;28;20030;-72
2021/03/02 13:22:26;;;;;;;22.97;11.57;;;;;;;;;;4970351;28;20038;-74
2021/03/02 13:24:52;;;;;;;17.00;9.95;;;;;;;;;;4968951;28;20030;-73
2021/03/02 13:27:18;;;;;;;27.13;11.27;;;;;;;;;;4970025;28;20081;-73
2021/03/02 13:29:46;;;;;;;15.38;10.60;;;;;;;;;;4969932;28;20652;-73
2021/03/02 13:32:19;;;;;;;15.13;9.68;;;;;;;;;;4970553;28;20058;-73
2021/03/02 13:34:46;;;;;;;15.73;10.55;;;;;;;;;;4969618;28;20027;-73
2021/03/02 13:37:15;;;;;;;15.43;10.45;;;;;;;;;;4985458;28;20031;-72
2021/03/02 13:39:41;;;;;;;19.10;10.23;;;;;;;;;;4969568;28;20026;-72
2021/03/02 13:42:08;;;;;;;15.70;10.35;;;;;;;;;;4971262;28;20033;-73
2021/03/02 13:44:34;;;;;;;21.35;11.02;;;;;;;;;;4970019;28;20049;-73
2021/03/02 13:47:00;;;;;;;15.88;10.52;;;;;;;;;;4970125;28;20023;-73
2021/03/02 13:49:27;;;;;;;20.75;11.38;;;;;;;;;;4971119;28;20034;-73
2021/03/02 13:51:54;;;;;;;17.38;10.45;;;;;;;;;;4969420;28;20050;-73
2021/03/02 13:54:20;;;;;;;17.80;10.57;;;;;;;;;;4969908;28;20076;-73
2021/03/02 13:56:46;;;;;;;18.40;10.88;;;;;;;;;;4969778;28;20166;-72
2021/03/02 13:59:12;;;;;;;17.15;11.25;;;;;;;;;;4955246;28;20029;-73
2021/03/02 14:01:38;;;;;;;15.35;10.55;;;;;;;;;;4975387;28;20396;-73
2021/03/02 14:04:06;;;;;;;16.15;10.07;;;;;;;;;;4969502;28;20026;-73
2021/03/02 14:06:32;;;;;;;18.80;11.50;;;;;;;;;;4969288;28;20034;-73
2021/03/02 14:08:58;;;;;;;18.48;10.60;;;;;;;;;;4967732;28;20408;-74
2021/03/02 14:11:24;;;;;;;19.20;11.18;;;;;;;;;;4968303;28;20030;-73
2021/03/02 14:13:50;;;;;;;17.60;9.88;;;;;;;;;;4969554;28;20033;-74
2021/03/02 14:16:17;;;;;;;19.55;10.95;;;;;;;;;;4967761;28;20023;-74
2021/03/02 14:18:43;;;;;;;17.90;10.80;;;;;;;;;;4969060;28;20081;-73